Latest Weather Observations for McArthur River Mine

IDD60801

Issued at 7:31 am CST Tuesday 23 December 2014 (issued every 30 minutes, with the page automatically refreshed every 10 minutes)

About weather observations | Map of weather stations | Latest weather observations for NT | Other Formats
Station Details ID: 014704 Name: MCARTHUR RIVER MINE AIRPORT Lat: -16.44 Lon: 136.08 Height: 40.0 m
Data from the previous 72 hours. | See also: Recent months at McArthur River Mine
Date/Time
CST
Temp
°C
App
Temp
°C
Dew
Point
Rel
Hum
%
Delta-T
°C
Wind Press
QNH
hPa
Press
MSL
hPa
Rain
since 9 am
mm
Dir
 
Spd
km/h
Gust
km/h
Spd
kts
Gust
kts
23/07:30am 27.8 35.0 27.8 100 0.0 E 6 7 3 4 1009.9 - 0.0
23/07:00am 27.0 33.6 27.0 100 0.0 SE 6 7 3 4 1009.7 - 0.0
23/06:30am 26.2 - 26.4 - - SE 6 9 3 5 1009.5 - 0.0
23/06:00am 26.2 - 26.4 - - S 6 7 3 4 1009.2 1008.9 0.0
23/05:30am 25.9 - 26.1 - - SSE 7 11 4 6 1008.6 - 0.0
23/05:00am 26.1 - 26.3 - - SE 2 7 1 4 1008.5 - 0.0
23/04:30am 26.1 - 26.3 - - SE 2 6 1 3 1008.3 - 0.0
23/04:00am 25.9 - 26.1 - - SSE 6 7 3 4 1008.2 - 0.0
23/03:30am 26.0 - 26.2 - - SSE 6 7 3 4 1008.0 - 0.0
23/03:00am 26.1 - 26.3 - - ESE 6 7 3 4 1007.6 1007.3 0.0
23/02:30am 26.1 - 26.3 - - NW 4 6 2 3 1007.2 - 0.0
23/02:00am 26.2 - 26.4 - - W 6 7 3 4 1007.2 - 0.0
23/01:30am 26.2 - 26.4 - - W 6 7 3 4 1007.3 - 0.0
23/01:00am 26.4 33.8 26.4 100 0.0 CALM 0 0 0 0 1007.5 - 0.0
23/12:30am 26.5 32.6 26.5 100 0.0 W 7 9 4 5 1008.1 - 0.0
23/12:00am 27.3 34.2 26.8 97 0.4 ENE 4 7 2 4 1008.5 1008.2 0.0
 
Date/Time
CST
Temp
°C
App
Temp
°C
Dew
Point
Rel
Hum
%
Delta-T
°C
Wind Press
QNH
hPa
Press
MSL
hPa
Rain
since 9 am
mm
Dir
 
Spd
km/h
Gust
km/h
Spd
kts
Gust
kts
22/11:30pm 27.5 34.0 26.8 96 0.5 NNE 6 9 3 5 1008.7 - 0.0
22/11:00pm 27.6 35.2 26.7 95 0.6 CALM 0 6 0 3 1009.2 - 0.0
22/10:30pm 27.5 33.5 26.4 94 0.8 ENE 7 9 4 5 1009.2 - 0.0
22/10:00pm 27.6 33.7 26.2 92 1.0 ENE 6 9 3 5 1009.1 - 0.0
22/09:30pm 27.7 32.6 25.9 90 1.3 ENE 11 15 6 8 1009.0 - 0.0
22/09:00pm 27.9 33.1 25.7 88 1.6 E 9 15 5 8 1008.9 1008.6 0.0
22/08:30pm 27.9 32.5 25.3 86 1.8 ENE 11 17 6 9 1008.5 - 0.0
22/08:00pm 28.3 31.5 24.3 79 2.8 ENE 15 20 8 11 1008.0 - 0.0
22/07:30pm 28.8 31.9 24.1 76 3.3 E 15 20 8 11 1007.4 - 0.0
22/07:00pm 29.4 33.0 23.8 72 3.9 E 11 17 6 9 1007.0 - 0.0
22/06:30pm 29.7 33.6 24.3 73 3.8 ENE 11 17 6 9 1006.7 - 0.0
22/06:00pm 30.7 34.8 23.9 67 4.7 ENE 9 15 5 8 1006.4 1006.1 0.0
22/05:30pm 30.9 34.2 23.8 66 4.9 ENE 13 20 7 11 1006.4 - 0.0
22/05:00pm 30.9 33.4 23.8 66 4.9 ENE 17 24 9 13 1006.4 - 0.0
22/04:30pm 31.4 33.6 24.3 66 5.0 ENE 20 32 11 17 1006.5 - 0.0
22/04:00pm 33.2 35.3 23.8 57 6.6 ENE 19 30 10 16 1006.3 - 0.0
22/03:30pm 32.7 34.7 23.6 58 6.3 E 19 28 10 15 1006.6 - 0.0
22/03:00pm 32.1 35.6 24.2 63 5.5 E 13 17 7 9 1006.4 1006.1 0.0
22/02:30pm 31.4 33.3 21.3 55 6.8 ENE 13 19 7 10 1006.8 - 0.0
22/02:00pm 31.8 32.8 21.0 52 7.2 E 17 24 9 13 1007.2 - 0.0
22/01:30pm 32.4 33.2 23.1 58 6.4 ENE 24 37 13 20 1007.6 - 0.0
22/01:00pm 35.1 38.7 23.8 52 7.9 NW 11 15 6 8 1007.6 - 0.0
22/12:30pm 34.0 38.7 24.3 57 6.8 WNW 7 17 4 9 1008.0 - 0.0
22/12:00pm 33.6 37.7 24.5 59 6.4 WNW 11 15 6 8 1008.3 1008.0 0.0
22/11:30am 33.0 38.7 25.0 63 5.7 N 4 13 2 7 1008.8 - 0.0
22/11:00am 32.6 37.5 25.2 65 5.2 NNW 9 15 5 8 1009.4 - 0.0
22/10:30am 32.9 37.8 25.2 64 5.5 NNW 9 20 5 11 1009.5 - 0.0
22/10:00am 32.1 36.8 24.9 65 5.1 NNW 9 15 5 8 1009.5 - 0.0
22/09:30am 31.2 35.6 25.1 70 4.3 NNW 11 17 6 9 1009.6 - 0.0
22/09:00am 31.3 36.6 24.4 66 4.8 NNW 4 9 2 5 1009.4 1009.1 0.0
22/08:30am 30.3 34.2 24.9 73 3.8 NW 13 17 7 9 1009.8 - 0.0
22/08:00am 29.3 37.4 28.0 93 0.9 NE 2 7 1 4 1009.8 - 0.0
22/07:30am 28.3 36.9 28.1 99 0.1 CALM 0 0 0 0 1009.8 - 0.0
22/07:00am 27.8 36.1 27.8 100 0.0 CALM 0 0 0 0 1009.3 - 0.0
22/06:30am 27.5 35.6 27.5 100 0.0 CALM 0 0 0 0 1008.9 - 0.0
22/06:00am 27.2 34.0 27.2 100 0.0 S 6 7 3 4 1008.5 1008.2 0.0
22/05:30am 27.2 - 27.4 - - WSW 6 7 3 4 1008.3 - 0.0
22/05:00am 27.0 - 27.2 - - WNW 6 7 3 4 1008.1 - 0.0
22/04:30am 27.2 - 27.4 - - WSW 6 9 3 5 1008.0 - 0.0
22/04:00am 27.1 34.9 27.1 100 0.0 CALM 0 0 0 0 1007.6 - 0.0
22/03:30am 27.5 34.9 27.5 100 0.0 WSW 4 7 2 4 1007.6 - 0.0
22/03:00am 27.4 - 27.6 - - E 2 9 1 5 1007.7 1007.4 0.0
22/02:30am 27.6 35.8 27.6 100 0.0 CALM 0 0 0 0 1007.6 - 0.0
22/02:20am 27.7 36.0 27.7 100 0.0 CALM 0 4 0 2 1007.6 - 0.0
22/02:08am 27.6 34.7 27.6 100 0.0 NE 6 7 3 4 1007.6 - 0.0
22/02:00am 27.6 35.4 27.6 100 0.0 NNE 2 6 1 3 1007.6 - 0.0
22/01:30am 27.9 36.1 27.6 98 0.2 CALM 0 0 0 0 1007.7 - 0.0
22/01:00am 28.1 36.0 27.2 95 0.6 CALM 0 0 0 0 1007.9 - 0.0
22/12:30am 28.5 35.9 26.5 89 1.4 CALM 0 0 0 0 1008.2 - 0.0
22/12:00am 28.4 34.4 26.0 87 1.7 NE 6 7 3 4 1008.6 1008.3 0.0
 
Date/Time
CST
Temp
°C
App
Temp
°C
Dew
Point
Rel
Hum
%
Delta-T
°C
Wind Press
QNH
hPa
Press
MSL
hPa
Rain
since 9 am
mm
Dir
 
Spd
km/h
Gust
km/h
Spd
kts
Gust
kts
21/11:30pm 28.6 33.7 25.6 84 2.1 ENE 9 13 5 7 1008.7 - 0.0
21/11:00pm 28.9 34.0 25.5 82 2.4 NE 9 13 5 7 1008.4 - 0.0
21/10:30pm 29.0 33.0 25.0 79 2.8 ENE 13 20 7 11 1008.0 - 0.0
21/10:00pm 29.4 34.3 25.8 81 2.6 ENE 11 19 6 10 1007.9 - 0.0
21/09:30pm 29.5 34.9 25.5 79 2.8 ENE 7 13 4 7 1007.5 - 0.0
21/09:00pm 29.8 35.1 25.3 77 3.2 NE 7 11 4 6 1006.9 1006.6 0.0
21/08:30pm 29.9 34.3 24.5 73 3.8 ENE 9 15 5 8 1006.6 - 0.0
21/08:00pm 30.2 34.6 24.4 71 4.1 ENE 9 15 5 8 1006.5 - 0.0
21/07:30pm 30.5 35.0 24.6 70 4.1 ENE 9 15 5 8 1007.0 - 0.0
21/07:00pm 30.4 35.9 24.1 69 4.4 ESE 2 6 1 3 1006.9 - 0.0
21/06:30pm 31.1 36.8 23.7 64 5.1 CALM 0 0 0 0 1006.3 - 0.0
21/06:00pm 31.1 35.2 23.2 63 5.5 E 7 9 4 5 1006.3 1006.0 0.0
21/05:30pm 31.5 34.1 21.9 56 6.5 NE 11 17 6 9 1005.3 - 0.0
21/05:00pm 30.8 31.6 21.3 57 6.4 NNE 19 30 10 16 1005.9 - 0.0
21/04:30pm 31.6 30.2 21.2 54 7.0 NE 30 46 16 25 1005.7 - 0.0
21/04:00pm 31.8 30.5 21.3 53 7.1 E 30 50 16 27 1006.1 - 0.0
21/03:47pm 33.8 32.5 20.6 46 8.9 E 28 48 15 26 1006.0 - 0.0
21/03:30pm 35.1 35.7 21.4 45 9.3 E 20 28 11 15 1005.7 - 0.0
21/03:00pm 35.5 38.0 21.7 44 9.5 N 11 20 6 11 1005.6 1005.3 0.0
21/02:30pm 36.3 40.0 23.2 47 9.1 NNW 9 15 5 8 1006.2 - 0.0
21/02:00pm 35.2 39.1 24.2 53 7.7 N 11 15 6 8 1006.3 - 0.0
21/01:30pm 34.4 38.3 24.3 55 7.1 NNW 11 19 6 10 1006.9 - 0.0
21/01:00pm 34.2 39.5 25.3 59 6.3 N 7 13 4 7 1007.9 - 0.0
21/12:30pm 33.2 38.1 25.2 63 5.7 N 9 15 5 8 1008.5 - 0.0
21/12:00pm 32.9 37.5 25.4 64 5.3 N 11 17 6 9 1009.0 1008.7 0.0
21/11:30am 32.7 37.0 25.5 66 5.1 N 13 19 7 10 1009.2 - 0.0
21/11:00am 32.8 37.7 25.9 67 4.9 NNW 11 17 6 9 1009.4 - 0.0
21/10:30am 32.1 34.9 24.9 65 5.1 N 19 28 10 15 1009.3 - 0.0
21/10:00am 32.4 36.5 25.7 68 4.8 N 15 22 8 12 1009.3 - 0.0
21/09:30am 31.2 36.6 26.0 74 3.7 N 9 13 5 7 1009.2 - 0.0
21/09:00am 30.1 35.2 26.7 82 2.4 NW 13 19 7 10 1009.2 1008.9 11.8
21/08:30am 28.1 35.5 28.1 100 0.0 N 6 9 3 5 1009.1 - 11.8
21/08:00am 27.1 33.2 27.1 100 0.0 NNE 9 11 5 6 1008.6 - 11.8
21/07:30am 25.9 - 26.1 - - NE 7 9 4 5 1008.3 - 11.6
21/07:00am 25.5 31.1 25.5 100 0.0 WSW 6 9 3 5 1008.1 - 11.6
21/06:30am 25.1 29.5 25.1 100 0.0 N 11 15 6 8 1008.0 - 11.4
21/06:21am 25.1 28.0 25.1 100 0.0 NW 19 32 10 17 1007.9 - 11.4
21/06:12am 25.0 27.3 25.0 100 0.0 WNW 22 33 12 18 1008.0 - 11.4
21/06:00am 24.3 - 24.5 - - W 20 26 11 14 1008.9 1008.6 9.6
21/05:57am 24.4 - 24.6 - - NW 9 19 5 10 1009.3 - 8.4
21/05:44am 25.3 - 25.5 - - E 24 33 13 18 1009.9 - 1.4
21/05:30am 25.5 27.7 25.5 100 0.0 ESE 24 41 13 22 1008.9 - 0.4
21/05:00am 28.0 31.8 26.4 91 1.1 SE 19 28 10 15 1008.3 - 0.4
21/04:30am 28.1 34.7 26.9 93 0.9 SSW 6 7 3 4 1007.5 - 0.4
21/04:00am 27.8 34.6 27.5 98 0.2 SSE 7 9 4 5 1007.5 - 0.4
21/03:30am 27.7 34.3 27.7 100 0.0 S 9 9 5 5 1007.4 - 0.4
21/03:00am 28.4 35.5 26.6 90 1.3 NNW 2 6 1 3 1007.2 1006.9 0.4
21/02:30am 27.9 33.5 26.3 91 1.1 N 9 11 5 6 1007.0 - 0.4
21/02:00am 28.2 33.2 25.4 85 2.0 N 9 13 5 7 1007.2 - 0.2
21/01:30am 28.7 33.8 24.9 80 2.7 N 7 11 4 6 1007.6 - 0.0
21/01:00am 28.9 34.4 24.7 78 2.9 NW 4 7 2 4 1007.7 - 0.0
21/12:30am 28.8 34.1 24.4 77 3.1 N 4 7 2 4 1008.0 - 0.0
21/12:00am 28.8 34.7 24.1 76 3.3 CALM 0 0 0 0 1008.4 1008.1 0.0
 
Date/Time
CST
Temp
°C
App
Temp
°C
Dew
Point
Rel
Hum
%
Delta-T
°C
Wind Press
QNH
hPa
Press
MSL
hPa
Rain
since 9 am
mm
Dir
 
Spd
km/h
Gust
km/h
Spd
kts
Gust
kts
20/11:30pm 28.8 33.2 23.5 73 3.6 WNW 6 9 3 5 1008.5 - 0.0
20/11:00pm 29.2 33.1 22.9 69 4.3 WSW 7 9 4 5 1008.2 - 0.0
20/10:30pm 29.6 33.3 22.6 66 4.8 SSW 7 9 4 5 1008.2 - 0.0
20/10:02pm 29.6 33.2 22.3 65 5.0 S 7 11 4 6 1008.5 - 0.0
20/10:00pm 29.7 33.2 22.2 64 5.1 S 7 11 4 6 1008.5 - 0.0
20/09:50pm 29.7 31.9 21.9 63 5.3 SSW 13 17 7 9 1008.4 - 0.0
20/09:30pm 30.1 31.0 21.5 60 5.8 S 19 24 10 13 1008.1 - 0.0
20/09:00pm 30.6 34.5 21.9 59 5.9 ESE 4 9 2 5 1007.3 1007.0 0.0
20/08:30pm 30.6 35.2 21.7 59 6.0 CALM 0 7 0 4 1007.1 - 0.0
20/08:00pm 30.5 33.1 20.4 54 6.7 E 7 11 4 6 1006.4 - 0.0
20/07:30pm 30.9 32.6 21.7 58 6.2 SSE 15 20 8 11 1006.8 - 0.0
20/07:00pm 32.8 35.2 21.6 51 7.6 NE 11 19 6 10 1005.9 - 0.0
20/06:30pm 32.5 35.2 22.9 57 6.6 NNE 13 17 7 9 1005.5 - 0.0
20/06:00pm 32.3 32.8 22.7 57 6.6 NNE 24 39 13 21 1005.5 1005.2 0.0
20/05:37pm 34.7 33.4 22.1 48 8.6 NNE 32 43 17 23 1005.3 - 0.0
20/05:30pm 36.5 39.3 21.5 41 10.2 N 9 13 5 7 1004.9 - 0.0
20/05:00pm 37.1 39.7 20.0 37 11.5 NNW 6 9 3 5 1004.2 - 0.0
20/04:30pm 37.7 40.8 19.6 34 12.1 N 2 6 1 3 1004.1 - 0.0
20/04:00pm 37.5 40.5 21.2 38 11.1 N 7 13 4 7 1004.3 - 0.0
20/03:30pm 37.8 40.6 19.7 34 12.1 NE 4 11 2 6 1004.6 - 0.0
20/03:00pm 38.0 41.4 21.6 38 11.3 NNW 6 13 3 7 1005.1 1004.8 0.0
20/02:30pm 37.7 40.3 20.5 36 11.6 SE 7 13 4 7 1005.8 - 0.0
20/02:00pm 37.5 39.7 20.3 36 11.6 ESE 9 15 5 8 1006.4 - 0.0
20/01:30pm 37.2 39.6 20.9 38 11.1 S 9 17 5 9 1007.0 - 0.0
20/01:00pm 36.7 40.3 22.4 43 9.9 S 7 15 4 8 1007.5 - 0.0
20/12:30pm 35.7 38.3 21.2 43 9.8 WSW 9 19 5 10 1008.0 - 0.0
20/12:00pm 35.2 38.7 22.2 47 8.9 SW 7 13 4 7 1008.5 1008.2 0.0
20/11:30am 34.9 36.5 22.9 49 8.3 SW 19 24 10 13 1009.0 - 0.0
20/11:00am 34.3 38.2 24.2 55 7.1 W 11 19 6 10 1009.4 - 0.0
20/10:30am 33.3 36.8 23.6 56 6.8 W 11 22 6 12 1009.9 - 0.0
20/10:00am 32.4 35.5 24.2 62 5.7 WSW 15 22 8 12 1010.3 - 0.0
20/09:30am 31.9 35.0 24.2 63 5.4 SW 15 20 8 11 1010.5 - 0.0
20/09:00am 31.8 35.4 24.4 65 5.2 SW 13 19 7 10 1010.5 1010.2 19.4
20/08:30am 30.4 35.4 24.8 72 3.9 WSW 7 11 4 6 1010.8 - 19.4
20/08:00am 29.5 35.4 26.7 85 2.0 W 9 13 5 7 1010.7 - 19.4

Other Formats:

Comma delimited format used in spreadsheet applications
http://www.bom.gov.au/fwo/IDD60801/IDD60801.94239.axf

JavaScript Object Notation format (JSON) in row-major order
http://www.bom.gov.au/fwo/IDD60801/IDD60801.94239.json